Pagrindinis puslapis
METAR-TAF:

METAR-TAF

Oro uostai :

Ronebis, Švedija

platuma: 56-16N, ilguma: 015-17E, Aukštis: 58 m

Dabartinis oras

Ataskaita buvo paskelbta 40 minutes, ne 23:20 UTC
Ramus vėjas
Temperatūra 13°C
Drėgmė 100%
Slėgis 1022 hPa
Matomumas 10 km arba daugiau

METAR: ESDF 022320Z AUTO 00000KT 9999 FEW220/// 13/13 Q1022

Laikas: 02:00 (00:00 UTC)

Prognozė

Ataskaita buvo paskelbta 12 valandos ir 30 minutes, ne 11:30 UTC
Prognozė galioja nuo 02 metu 12 UTC su 02 metu 15 UTC
Vėjas 8 kt iš Vakarų
Matomumas 10 km arba daugiau
Išsisklaidę debesys ne aukštis 3500 ft

TAF: ESDF 021130Z 0212/0215 27008KT 9999 SCT035

Orai ataskaitas ir orų prognozės (METAR, TAF).

turimą stotys yra geltonos ir raudonos taškus žemėlapyje.

Perkelti pele per norėdami pamatyti stoties vardą.

Tada spustelėkite, norėdami matyti oro stebėjimo ir prognozės.

Norėdami pakeisti žemėlapį: spustelėkite ant žalios mygtukų su juodo kryžiaus žemyn,; žalią mygtuką su brūkšneliu, jei norite nutolinti; arba žalių rodyklių gretimoms žemėlapius.


METAR-TAF: